Sponsor www.jackysshop.nl


METAR rapporten vliegvelden

   
EBAW - Antwerp
Gewijzigd: 19-05-2019 22:50
Nevel, Grotendeels bewolkt  
Nevel, Grotendeels bewolkt  
   Wind: NNW 16.7 km/h
Wind: NNW 16.7 km/h
Temperatuur: 12°C
Dauwpunt: 11°C
Vochtigheid: 94%
Barometer: 1007 hPa
Bewolking: Grotendeels bewolkt
Zicht: 3 km
Bewolking: Grotendeels bewolkt 400 ft
EBAW 192050Z 33009KT 300V360 3000 BR BKN004 12/11 Q1007 NOSIG
EBLG - Li├Ęge
Gewijzigd: 19-05-2019 22:50
Nevel, Grotendeels bewolkt  
Nevel, Grotendeels bewolkt  
   Wind: NW 11.1 km/h
Wind: NW 11.1 km/h
Temperatuur: 13°C
Dauwpunt: 12°C
Vochtigheid: 94%
Barometer: 1007 hPa
Bewolking: Grotendeels bewolkt
Zicht: 1.3 km
Bewolking: Gedeeltelijk bewolkt 100 ft,
Grotendeels bewolkt 300 ft
EBLG 192050Z 32006KT 280V350 1300 R22L/P2000N R22R/P2000N R04R/P2000N BR SCT001 BKN003 13/12 Q1007 TEMPO 0700 FG BKN001
EBCV - Mons/Bergen
Gewijzigd: 19-05-2019 23:03
Nevel, Bewolking  
Nevel, Bewolking  
   Wind: NNW 16.7 km/h
Wind: NNW 16.7 km/h
Temperatuur: 12°C
Dauwpunt: 11°C
Vochtigheid: 94%
Barometer: 1008 hPa
Bewolking: Bewolking
Zicht: 3.4 km
Bewolking: Bewolking 800 ft
EBCV 192103Z AUTO 34009KT 3400 BR OVC008/// 12/11 Q1008 YLO
EHBK - Maastricht
Gewijzigd: 19-05-2019 22:55
Gedeeltelijk bewolkt  
Gedeeltelijk bewolkt  
   Wind: ZW 5.6 km/h
Wind: ZW 5.6 km/h
Temperatuur: 12°C
Dauwpunt: 11°C
Vochtigheid: 94%
Barometer: 1006 hPa
Bewolking: Gedeeltelijk bewolkt
Zicht: 7 km
Bewolking: Gedeeltelijk bewolkt
EHBK 192055Z AUTO 23003KT 170V310 7000 NSC 12/11 Q1006 BECMG 4000 BR
ELLX - Luxemburg
Gewijzigd: 19-05-2019 22:50
Licht bewolkt  
Licht bewolkt  
   Wind: NNW 13 km/h
Wind: NNW 13 km/h
Temperatuur: 13°C
Dauwpunt: 11°C
Vochtigheid: 88%
Barometer: 1006 hPa
Bewolking: Licht bewolkt
Zicht: meer dan 10 km
Bewolking: Licht bewolkt 4200 ft
ELLX 192050Z 34007KT 9999 FEW042 13/11 Q1006 NOSIG
EBOS - Oostende
Gewijzigd: 19-05-2019 22:50
Grotendeels bewolkt  
Grotendeels bewolkt  
   Wind: Noorden 13 km/h
Wind: Noorden 13 km/h
Temperatuur: 11°C
Dauwpunt: 9°C
Vochtigheid: 88%
Barometer: 1009 hPa
Bewolking: Grotendeels bewolkt
Zicht: meer dan 10 km
Bewolking: Grotendeels bewolkt 900 ft
EBOS 192050Z 01007KT 340V040 9999 BKN009 11/09 Q1009 NOSIG

Script ontwikkeld door  Saratoga-weather.org Aangepast voor de template door  Weerstation Leuven